createdAt,value
2022-09-25T00:00:59.058Z,14.10
2022-09-25T00:03:28.005Z,14.20
2022-09-25T00:06:01.948Z,14.20
2022-09-25T00:13:23.540Z,14.10
2022-09-25T00:15:55.672Z,14.00
2022-09-25T00:18:42.796Z,14.10
2022-09-25T00:21:12.657Z,14.10
2022-09-25T00:23:41.144Z,14.10
2022-09-25T00:26:09.121Z,14.10
2022-09-25T00:28:37.348Z,14.10
2022-09-25T00:31:05.854Z,14.10
2022-09-25T00:33:33.776Z,14.00
2022-09-25T00:36:06.458Z,14.00
2022-09-25T00:38:34.600Z,13.90
2022-09-25T00:43:48.810Z,13.80
2022-09-25T00:46:30.376Z,13.80
2022-09-25T00:49:13.880Z,13.80
2022-09-25T00:51:54.799Z,13.80
2022-09-25T00:54:58.804Z,13.80
2022-09-25T00:57:30.342Z,13.70
2022-09-25T01:00:01.195Z,13.70
2022-09-25T01:02:30.840Z,13.70
2022-09-25T01:05:04.030Z,13.70
2022-09-25T01:07:33.968Z,13.70
2022-09-25T01:17:43.507Z,13.70
2022-09-25T01:20:15.826Z,13.70
2022-09-25T01:25:35.782Z,13.60
2022-09-25T01:28:39.449Z,13.70
2022-09-25T01:31:16.377Z,13.70
2022-09-25T01:33:58.094Z,13.70
2022-09-25T01:36:36.086Z,13.70
2022-09-25T01:39:21.073Z,13.70
2022-09-25T01:44:32.146Z,13.60
2022-09-25T01:47:14.437Z,13.80
2022-09-25T01:49:55.543Z,13.80
2022-09-25T01:52:35.779Z,13.80
2022-09-25T01:55:11.380Z,13.80
2022-09-25T01:57:51.321Z,13.80
2022-09-25T02:00:23.626Z,13.80
2022-09-25T02:02:56.524Z,13.80
2022-09-25T02:05:49.886Z,13.80
2022-09-25T02:08:29.972Z,13.80
2022-09-25T02:11:02.186Z,13.80
2022-09-25T02:13:37.850Z,13.80
2022-09-25T02:16:11.230Z,13.90
2022-09-25T02:21:46.490Z,13.80
2022-09-25T02:24:26.748Z,13.80
2022-09-25T02:31:57.148Z,13.80
2022-09-25T02:34:24.229Z,13.80
2022-09-25T02:36:51.393Z,13.80
2022-09-25T02:39:21.756Z,13.70
2022-09-25T02:42:12.938Z,13.80
2022-09-25T02:45:22.131Z,13.80
2022-09-25T02:48:22.967Z,13.70
2022-09-25T02:51:08.483Z,13.70
2022-09-25T02:53:44.444Z,13.80
2022-09-25T02:56:24.623Z,13.70
2022-09-25T02:58:56.065Z,13.80
2022-09-25T03:01:26.367Z,13.80
2022-09-25T03:03:57.217Z,13.80
2022-09-25T03:06:25.791Z,13.70
2022-09-25T03:08:56.841Z,13.70
2022-09-25T03:11:26.925Z,13.70
2022-09-25T03:14:02.181Z,13.70
2022-09-25T03:16:39.286Z,13.70
2022-09-25T03:21:33.122Z,13.70
2022-09-25T03:24:00.409Z,13.60
2022-09-25T03:26:27.812Z,13.60
2022-09-25T03:28:54.738Z,13.60
2022-09-25T03:31:21.765Z,13.70
2022-09-25T03:33:49.187Z,13.70
2022-09-25T03:36:21.570Z,13.70
2022-09-25T03:38:50.899Z,13.70
2022-09-25T03:41:21.029Z,13.60
2022-09-25T03:43:51.229Z,13.60
2022-09-25T03:46:23.550Z,13.60
2022-09-25T03:48:50.286Z,13.60
2022-09-25T03:56:20.345Z,13.60
2022-09-25T03:58:47.688Z,13.60
2022-09-25T04:01:16.136Z,13.60
2022-09-25T04:03:47.294Z,13.60
2022-09-25T04:06:19.950Z,13.60
2022-09-25T04:08:48.074Z,13.60
2022-09-25T04:11:16.749Z,13.50
2022-09-25T04:16:16.152Z,13.50
2022-09-25T04:18:43.348Z,13.50
2022-09-25T04:21:12.194Z,13.60
2022-09-25T04:23:39.327Z,13.60
2022-09-25T04:28:33.374Z,13.50
2022-09-25T04:31:00.907Z,13.50
2022-09-25T04:33:46.479Z,13.50
2022-09-25T04:36:14.169Z,13.50
2022-09-25T04:38:41.152Z,13.50
2022-09-25T04:46:06.670Z,13.40
2022-09-25T04:48:34.179Z,13.40
2022-09-25T04:53:35.535Z,13.40
2022-09-25T04:56:05.250Z,13.30
2022-09-25T04:58:32.152Z,13.30
2022-09-25T05:01:08.802Z,13.30
2022-09-25T05:03:36.310Z,13.40
2022-09-25T05:06:03.215Z,13.30
2022-09-25T05:10:57.417Z,13.30
2022-09-25T05:15:51.324Z,13.30
2022-09-25T05:18:20.733Z,13.30
2022-09-25T05:20:47.994Z,13.30
2022-09-25T05:28:10.179Z,13.20
2022-09-25T05:30:38.841Z,13.30
2022-09-25T05:33:06.010Z,13.30
2022-09-25T05:35:33.624Z,13.20
2022-09-25T05:40:28.653Z,13.30
2022-09-25T05:45:23.908Z,13.30
2022-09-25T05:48:09.034Z,13.30
2022-09-25T05:50:36.459Z,13.30
2022-09-25T05:53:05.090Z,13.20
2022-09-25T05:55:32.236Z,13.20
2022-09-25T05:58:05.196Z,13.10
2022-09-25T06:00:33.055Z,13.10
2022-09-25T06:03:01.225Z,13.10
2022-09-25T06:07:55.758Z,13.00
2022-09-25T06:10:22.639Z,13.00
2022-09-25T06:12:49.405Z,13.00
2022-09-25T06:15:16.121Z,13.00
2022-09-25T06:20:15.865Z,12.90
2022-09-25T06:22:44.518Z,12.90
2022-09-25T06:30:05.922Z,12.90
2022-09-25T06:32:32.564Z,12.90
2022-09-25T06:37:26.463Z,12.90
2022-09-25T06:42:20.180Z,12.90
2022-09-25T06:44:46.877Z,12.90
2022-09-25T06:52:13.422Z,12.80
2022-09-25T06:57:11.656Z,12.90
2022-09-25T07:02:24.581Z,12.90
2022-09-25T07:04:51.982Z,12.90
2022-09-25T07:07:20.463Z,12.80
2022-09-25T07:09:50.701Z,12.90
2022-09-25T07:12:18.340Z,12.90
2022-09-25T07:14:46.888Z,12.90
2022-09-25T07:17:16.392Z,12.90
2022-09-25T07:19:43.056Z,12.90
2022-09-25T07:22:11.228Z,12.90
2022-09-25T07:24:38.018Z,12.90
2022-09-25T07:27:04.686Z,12.90
2022-09-25T07:32:00.052Z,13.00
2022-09-25T07:34:26.736Z,12.90
2022-09-25T07:39:21.948Z,13.00
2022-09-25T07:47:03.707Z,13.10
2022-09-25T07:49:49.269Z,13.20
2022-09-25T07:54:43.095Z,13.30
2022-09-25T07:57:09.797Z,13.30
2022-09-25T08:04:31.993Z,13.40
2022-09-25T08:07:00.129Z,13.50
2022-09-25T08:09:27.221Z,13.60
2022-09-25T08:16:55.854Z,13.40
2022-09-25T08:19:23.458Z,13.60
2022-09-25T08:21:50.530Z,13.60
2022-09-25T08:26:44.447Z,13.70
2022-09-25T08:31:38.733Z,13.70
2022-09-25T08:41:54.875Z,13.90
2022-09-25T08:44:30.533Z,14.00
2022-09-25T08:47:32.164Z,14.10
2022-09-25T08:50:22.361Z,14.30
2022-09-25T08:52:53.049Z,14.50
2022-09-25T08:55:23.991Z,14.60
2022-09-25T08:57:55.576Z,14.70
2022-09-25T09:00:24.181Z,14.80
2022-09-25T09:02:54.254Z,14.90
2022-09-25T09:05:23.684Z,15.00
2022-09-25T09:07:57.522Z,15.10
2022-09-25T09:10:40.442Z,15.10
2022-09-25T09:13:26.519Z,15.30
2022-09-25T09:16:01.419Z,15.50
2022-09-25T09:18:31.385Z,15.70
2022-09-25T09:21:11.639Z,16.00
2022-09-25T09:24:17.005Z,16.40
2022-09-25T09:27:21.421Z,16.60
2022-09-25T09:32:55.178Z,16.00
2022-09-25T09:35:34.122Z,15.40
2022-09-25T09:38:10.517Z,15.20
2022-09-25T09:41:14.640Z,15.00
2022-09-25T09:44:12.342Z,15.00
2022-09-25T09:47:03.634Z,15.00
2022-09-25T09:49:42.178Z,15.10
2022-09-25T09:52:22.426Z,15.10
2022-09-25T09:55:12.599Z,15.20
2022-09-25T09:57:47.492Z,15.30
2022-09-25T10:00:17.369Z,15.40
2022-09-25T10:02:57.877Z,15.60
2022-09-25T10:05:48.867Z,15.90
2022-09-25T10:08:17.512Z,16.20
2022-09-25T10:10:47.855Z,16.40
2022-09-25T10:13:34.182Z,16.40
2022-09-25T10:16:11.150Z,16.60
2022-09-25T10:18:53.655Z,16.40
2022-09-25T10:21:23.793Z,16.20
2022-09-25T10:23:53.340Z,16.00
2022-09-25T10:26:37.867Z,15.80
2022-09-25T10:29:07.730Z,15.70
2022-09-25T10:31:38.326Z,15.80
2022-09-25T10:34:16.316Z,15.80
2022-09-25T10:36:46.637Z,15.70
2022-09-25T10:39:50.614Z,15.70
2022-09-25T10:42:40.865Z,15.70
2022-09-25T10:45:31.875Z,15.90
2022-09-25T10:48:17.522Z,16.20
2022-09-25T10:50:44.491Z,16.40
2022-09-25T10:53:30.401Z,16.60
2022-09-25T10:56:20.536Z,16.60
2022-09-25T10:58:57.531Z,16.80
2022-09-25T11:01:37.838Z,16.70
2022-09-25T11:04:14.164Z,16.80
2022-09-25T11:06:52.485Z,16.90
2022-09-25T11:09:22.378Z,17.00
2022-09-25T11:11:52.305Z,17.00
2022-09-25T11:14:32.545Z,17.10
2022-09-25T11:17:01.960Z,16.90
2022-09-25T11:19:36.544Z,16.90
2022-09-25T11:22:25.994Z,17.00
2022-09-25T11:27:45.892Z,17.50
2022-09-25T11:32:52.990Z,17.70
2022-09-25T11:35:49.696Z,17.70
2022-09-25T11:39:01.668Z,17.70
2022-09-25T11:41:31.349Z,17.50
2022-09-25T11:44:35.696Z,17.60
2022-09-25T11:47:17.508Z,17.60
2022-09-25T11:49:48.861Z,17.50
2022-09-25T11:52:27.984Z,17.40
2022-09-25T11:55:00.613Z,17.20
2022-09-25T12:00:04.727Z,17.00
2022-09-25T12:02:55.685Z,17.00
2022-09-25T12:05:51.636Z,17.00
2022-09-25T12:08:57.155Z,17.30
2022-09-25T12:11:45.992Z,17.60
2022-09-25T12:14:21.568Z,17.60
2022-09-25T12:17:11.225Z,17.60
2022-09-25T12:19:49.658Z,17.50
2022-09-25T12:22:48.755Z,17.50
2022-09-25T12:25:37.472Z,17.60
2022-09-25T12:28:21.681Z,17.60
2022-09-25T12:31:07.119Z,17.50
2022-09-25T12:34:06.203Z,17.30
2022-09-25T12:36:42.825Z,17.40
2022-09-25T12:39:37.088Z,17.40
2022-09-25T12:42:17.464Z,17.20
2022-09-25T12:44:47.212Z,17.20
2022-09-25T12:47:55.346Z,17.30
2022-09-25T12:50:38.683Z,17.30
2022-09-25T12:53:22.380Z,17.50
2022-09-25T12:56:13.353Z,17.80
2022-09-25T12:58:48.166Z,18.10
2022-09-25T13:01:24.505Z,18.30
2022-09-25T13:04:00.996Z,18.40
2022-09-25T13:06:31.152Z,18.50
2022-09-25T13:09:22.655Z,18.40
2022-09-25T13:12:01.954Z,18.30
2022-09-25T13:14:41.011Z,18.10
2022-09-25T13:17:12.141Z,18.00
2022-09-25T13:22:10.186Z,17.60
2022-09-25T13:24:52.357Z,17.40
2022-09-25T13:27:22.500Z,17.30
2022-09-25T13:29:57.941Z,17.20
2022-09-25T13:32:34.635Z,17.10
2022-09-25T13:35:05.481Z,17.10
2022-09-25T13:37:35.592Z,17.10
2022-09-25T13:40:37.258Z,17.10
2022-09-25T13:43:28.112Z,17.20
2022-09-25T13:46:17.494Z,17.20
2022-09-25T13:48:44.708Z,17.20
2022-09-25T13:51:20.139Z,17.40
2022-09-25T13:54:00.052Z,17.50
2022-09-25T13:56:34.034Z,17.60
2022-09-25T13:59:03.807Z,17.40
2022-09-25T14:01:35.043Z,17.30
2022-09-25T14:04:19.354Z,17.30
2022-09-25T14:06:49.024Z,17.30
2022-09-25T14:09:19.731Z,17.30
2022-09-25T14:11:52.361Z,17.30
2022-09-25T14:14:52.869Z,17.50
2022-09-25T14:17:21.859Z,17.50
2022-09-25T14:19:51.876Z,17.50
2022-09-25T14:22:35.515Z,17.50
2022-09-25T14:25:02.184Z,17.60
2022-09-25T14:30:13.870Z,17.60
2022-09-25T14:33:15.883Z,17.40
2022-09-25T14:36:11.970Z,17.20
2022-09-25T14:38:51.137Z,16.90
2022-09-25T14:41:47.689Z,16.80
2022-09-25T14:46:44.012Z,16.80
2022-09-25T14:49:40.410Z,16.80
2022-09-25T14:52:10.782Z,16.80
2022-09-25T14:54:43.647Z,16.80
2022-09-25T14:59:42.345Z,16.80
2022-09-25T15:02:34.293Z,16.80
2022-09-25T15:05:23.975Z,16.80
2022-09-25T15:10:38.465Z,16.80
2022-09-25T15:13:06.092Z,16.80
2022-09-25T15:15:34.020Z,16.80
2022-09-25T15:18:02.596Z,16.90
2022-09-25T15:20:34.674Z,16.80
2022-09-25T15:23:06.884Z,16.70
2022-09-25T15:25:38.154Z,16.80
2022-09-25T15:28:07.369Z,16.70
2022-09-25T15:30:36.703Z,16.60
2022-09-25T15:33:03.490Z,16.50
2022-09-25T15:38:05.946Z,16.20
2022-09-25T15:43:00.775Z,16.00
2022-09-25T15:45:39.859Z,16.00
2022-09-25T15:48:44.911Z,16.00
2022-09-25T15:51:23.283Z,16.00
2022-09-25T15:54:02.070Z,15.90
2022-09-25T15:56:47.769Z,15.90
2022-09-25T15:59:21.073Z,16.00
2022-09-25T16:02:06.954Z,16.10
2022-09-25T16:04:46.160Z,16.20
2022-09-25T16:07:23.947Z,16.20
2022-09-25T16:09:53.381Z,16.10
2022-09-25T16:14:48.672Z,16.10
2022-09-25T16:17:22.210Z,16.10
2022-09-25T16:20:23.276Z,16.20
2022-09-25T16:22:57.060Z,16.20
2022-09-25T16:25:36.334Z,16.30
2022-09-25T16:28:10.865Z,16.40
2022-09-25T16:30:38.085Z,16.90
2022-09-25T16:33:16.274Z,16.40
2022-09-25T16:36:08.064Z,16.30
2022-09-25T16:38:35.471Z,16.30
2022-09-25T16:41:04.074Z,16.30
2022-09-25T16:46:03.975Z,16.20
2022-09-25T16:48:39.566Z,16.20
2022-09-25T16:51:22.622Z,16.20
2022-09-25T16:53:52.650Z,16.20
2022-09-25T16:56:25.655Z,16.10
2022-09-25T16:58:53.824Z,16.10
2022-09-25T17:01:25.460Z,16.00
2022-09-25T17:03:55.338Z,15.90
2022-09-25T17:06:26.382Z,15.80
2022-09-25T17:08:53.450Z,15.70
2022-09-25T17:11:22.001Z,15.50
2022-09-25T17:13:53.025Z,15.40
2022-09-25T17:16:19.922Z,15.30
2022-09-25T17:18:49.465Z,15.20
2022-09-25T17:24:03.030Z,14.90
2022-09-25T17:26:53.145Z,14.80
2022-09-25T17:29:25.358Z,14.70
2022-09-25T17:34:28.467Z,14.50
2022-09-25T17:39:26.510Z,14.30
2022-09-25T17:44:23.570Z,14.10
2022-09-25T17:46:51.912Z,14.10
2022-09-25T17:49:18.752Z,14.20
2022-09-25T17:54:13.388Z,14.00
2022-09-25T17:56:42.578Z,13.90
2022-09-25T17:59:09.767Z,13.80
2022-09-25T18:01:39.788Z,13.70
2022-09-25T18:04:28.439Z,13.80
2022-09-25T18:09:34.742Z,13.70
2022-09-25T18:12:01.687Z,13.60
2022-09-25T18:22:19.014Z,13.50
2022-09-25T18:24:49.877Z,13.50
2022-09-25T18:32:14.906Z,13.20
2022-09-25T18:34:42.808Z,13.10
2022-09-25T18:37:12.988Z,13.10
2022-09-25T18:42:06.977Z,12.90
2022-09-25T18:49:37.785Z,12.60
2022-09-25T18:52:04.829Z,12.60
2022-09-25T18:54:31.721Z,12.50
2022-09-25T18:59:30.570Z,12.40
2022-09-25T19:09:28.052Z,12.30
2022-09-25T19:14:24.004Z,12.20
2022-09-25T19:16:53.654Z,12.10
2022-09-25T19:19:20.392Z,12.10
2022-09-25T19:29:12.364Z,11.80
2022-09-25T19:31:39.154Z,11.80
2022-09-25T19:36:34.750Z,11.80
2022-09-25T19:39:02.659Z,11.70
2022-09-25T19:41:35.419Z,11.70
2022-09-25T19:44:11.240Z,11.70
2022-09-25T19:46:41.467Z,11.70
2022-09-25T19:51:37.584Z,11.50
2022-09-25T19:54:05.403Z,11.50
2022-09-25T19:56:32.058Z,11.40
2022-09-25T20:01:28.227Z,11.40
2022-09-25T20:03:56.598Z,11.40
2022-09-25T20:06:24.484Z,11.30
2022-09-25T20:09:00.850Z,11.30
2022-09-25T20:11:28.543Z,11.30
2022-09-25T20:16:25.288Z,11.20
2022-09-25T20:19:00.702Z,11.10
2022-09-25T20:21:30.046Z,11.10
2022-09-25T20:23:58.923Z,11.10
2022-09-25T20:26:26.794Z,11.10
2022-09-25T20:29:01.671Z,11.00
2022-09-25T20:31:30.953Z,11.00
2022-09-25T20:33:57.640Z,10.90
2022-09-25T20:36:24.852Z,10.90
2022-09-25T20:38:56.134Z,10.90
2022-09-25T20:41:24.778Z,10.90
2022-09-25T20:43:54.718Z,10.80
2022-09-25T20:46:23.818Z,10.80
2022-09-25T20:48:52.208Z,10.70
2022-09-25T20:51:21.400Z,10.70
2022-09-25T20:53:53.058Z,10.70
2022-09-25T20:56:20.372Z,10.70
2022-09-25T21:01:22.833Z,10.70
2022-09-25T21:03:51.013Z,10.70
2022-09-25T21:06:21.945Z,10.70
2022-09-25T21:08:52.693Z,10.70
2022-09-25T21:13:51.342Z,10.70
2022-09-25T21:16:19.169Z,10.60
2022-09-25T21:18:54.882Z,10.60
2022-09-25T21:23:53.829Z,10.70
2022-09-25T21:26:22.603Z,10.70
2022-09-25T21:28:51.677Z,10.80
2022-09-25T21:31:20.990Z,10.80
2022-09-25T21:33:50.167Z,10.80
2022-09-25T21:36:17.416Z,10.90
2022-09-25T21:41:14.006Z,11.10
2022-09-25T21:46:11.589Z,11.20
2022-09-25T21:48:39.663Z,11.30
2022-09-25T21:51:08.028Z,11.30
2022-09-25T21:53:35.005Z,11.40
2022-09-25T21:56:02.741Z,11.40
2022-09-25T22:01:08.197Z,11.40
2022-09-25T22:03:37.155Z,11.40
2022-09-25T22:06:06.685Z,11.60
2022-09-25T22:08:36.525Z,11.50
2022-09-25T22:11:05.410Z,11.60
2022-09-25T22:13:34.852Z,11.50
2022-09-25T22:16:12.389Z,11.50
2022-09-25T22:18:52.807Z,11.40
2022-09-25T22:21:22.271Z,11.40
2022-09-25T22:23:49.330Z,11.30
2022-09-25T22:26:17.373Z,11.20
2022-09-25T22:28:44.547Z,11.10
2022-09-25T22:31:18.206Z,11.00
2022-09-25T22:33:45.622Z,10.90
2022-09-25T22:36:13.038Z,10.80
2022-09-25T22:38:40.547Z,10.80
2022-09-25T22:41:10.629Z,10.70
2022-09-25T22:43:37.993Z,10.70
2022-09-25T22:46:06.220Z,10.60
2022-09-25T22:48:33.785Z,10.50
2022-09-25T22:53:30.020Z,10.40
2022-09-25T22:56:07.119Z,10.40
2022-09-25T23:01:02.301Z,10.30
2022-09-25T23:03:29.254Z,10.20
2022-09-25T23:16:07.298Z,10.20
2022-09-25T23:18:35.964Z,10.20
2022-09-25T23:23:30.060Z,10.10
2022-09-25T23:26:06.248Z,10.10
2022-09-25T23:28:34.602Z,10.10
2022-09-25T23:31:11.566Z,10.10
2022-09-25T23:33:39.683Z,10.10
2022-09-25T23:36:18.300Z,10.10
2022-09-25T23:41:19.107Z,10.20
2022-09-25T23:43:47.339Z,10.20
2022-09-25T23:46:15.636Z,10.10
2022-09-25T23:48:43.656Z,10.10
2022-09-25T23:51:10.780Z,10.10
2022-09-25T23:53:37.890Z,10.10
2022-09-25T23:56:09.657Z,10.00
